Tiempo atmosférico en la estación meteorológica de Grazalema, Cádiz (900 m.)



Fecha
DESCASC
Temp. máxima en grados centígrados (hora)
DESCASC
Temp. mínima en grados centígrados (hora)
DESCASC
Temp. media en grados centígrados
DESCASC
Racha de viento máxima en m/sg (hora)
DESCASC
Velocidad máxima media en intervalos de 10 minutos(hora)
DESCASC
Precipitaciones diarias en mm
DESCASC
Precipitaciones de 00:00 a 06:00 en mm
DESCASC
Precipitaciones de 06:00 a 12:00 en mm
DESCASC
Precipitaciones de 12:00 a 18:00 en mm
DESCASC
Precipitaciones de 18:00 a 24:00 en mm
DESCASC
22-01-2020 8.9 (13:40) 3.3 (05:50) 6.1 8.06 (22:40) 2.22 (23:10) 19.9 11.6 4.8 0.4 3.1
21-01-2020 6.8 (11:00) 0.5 (06:20) 3.7 5.28 (22:10) 1.94 (07:40) 0.3 0 0 0 0.3
20-01-2020 3.2 (22:20) -0.2 (07:40) 1.5 9.44 (00:10) 5.56 (00:10) 2.1 0 0 2 0.1
19-01-2020 11.5 (00:00) 1.9 (00:00) 6.7 14.17 (02:10) 6.67 (22:00) 7.3 6 0 1.1 0.2
18-01-2020 11.7 (20:40) 3.6 (00:00) 7.6 10.28 (23:50) 3.33 (23:59) 55.4 0 0 19.2 36.2
17-01-2020 13.1 (15:40) 3.3 (00:00) 8.2 4.44 (03:30) 2.22 (21:40) 0 0 0 0 0
16-01-2020 14.6 (13:00) 3.2 (00:00) 8.9 4.44 (14:20) 2.5 (07:10) 0 0 0 0 0
15-01-2020 13.5 (14:40) 3.1 (00:00) 8.3 6.11 (13:40) 2.5 (21:20) 0 0 0 0 0
14-01-2020 10.4 (15:30) 0.9 (00:00) 5.6 5.83 (14:40) 2.5 (14:40) 0 0 0 0 0
13-01-2020 12.2 (14:20) 0 (00:00) 6.1 3.89 (11:20) 2.5 (01:00) 0 0 0 0 0
12-01-2020 12.8 (14:30) 0.9 (00:00) 6.9 3.89 (14:40) 2.22 (05:20) 0 0 0 0 0
11-01-2020 12.2 (13:20) 1.2 (00:00) 6.7 4.17 (11:40) 2.22 (01:20) 0 0 0 0 0
10-01-2020 9.7 (14:10) 4.1 (00:00) 6.9 7.78 (21:30) 4.44 (21:40) 0 0 0 0 0
09-01-2020 13.1 (14:50) 2.9 (00:00) 8 4.44 (15:50) 2.22 (02:30) 0 0 0 0 0
08-01-2020 17.2 (13:00) 3.4 (00:00) 10.3 3.61 (02:50) 2.5 (02:50) 0 0 0 0 0
07-01-2020 15.6 (13:40) 2.9 (00:00) 9.3 4.17 (06:20) 2.78 (08:30) 0 0 0 0 0
06-01-2020 12 (15:00) 1.4 (00:00) 6.7 3.89 (07:30) 2.78 (07:10) 0 0 0 0 0
05-01-2020 12.8 (15:20) 1.7 (00:00) 7.3 3.61 (07:10) 2.22 (07:10) 0 0 0 0 0
04-01-2020 12.1 (14:50) 1.7 (00:00) 6.9 3.89 (22:40) 2.5 (04:50) 0 0 0 0 0
03-01-2020 10.6 (14:10) 2.3 (00:00) 6.5 3.61 (04:40) 2.22 (04:40) 0 0 0 0 0
02-01-2020 13.9 (13:50) 3.9 (00:00) 8.9 4.44 (03:40) 2.78 (03:40) 0 0 0 0 0
01-01-2020 15.7 (12:40) 4.3 (00:00) 10 3.89 (22:50) 2.5 (04:30) 0 0 0 0 0
31-12-2019 15.8 (14:20) 3.5 (00:00) 9.7 3.89 (01:40) 2.78 (05:00) 0 0 0 0 0
30-12-2019 14.7 (13:50) 3.6 (00:00) 9.1 3.89 (00:30) 2.78 (02:20) 0 0 0 0 0
29-12-2019 17.9 (13:10) 4.1 (00:00) 11 8.33 (04:20) 3.61 (04:20) 0 0 0 0 0
28-12-2019 20.7 (13:10) 9.2 (00:00) 15 5 (15:00) 2.78 (15:00) 0 0 0 0 0
27-12-2019 19.6 (14:10) 10.6 (00:00) 15.1 7.78 (12:50) 3.89 (02:30) 0 0 0 0 0
26-12-2019 21 (14:20) 8.2 (00:00) 14.6 5.83 (23:00) 2.78 (03:20) 0 0 0 0 0
25-12-2019 19.7 (13:40) 8.7 (00:00) 14.2 3.89 (20:50) 2.78 (07:50) 0 0 0 0 0
24-12-2019 21.5 (14:00) 8.6 (00:00) 15.1 6.94 (18:10) 3.06 (22:50) 0 0 0 0 0

Gráficas

Temp. máximas Temp. mínimas Temp. medias Precipitaciones Rachas de viento máximas Velocidades máximas media en intervalos de 10 minutos

Datos horarios

Fecha y hora oficial Temperatura (ºC) Velocidad del viento (km/h) Dirección del viento Racha (km/h) Dirección de racha Precipitación (mm) Presión (hPa) Tendencia (hPa) Humedad (%)
2020-01-22 23:00:00 5.4 5 Sur 29 Sur 0.5 910.6 0.7 84
2020-01-22 22:00:00 4.1 5 Este 16 Este 1.3 910.8 1 84
2020-01-22 21:00:00 5.5 3 Sur 18 Sudeste 0.1 910.4 0.9 86
2020-01-22 20:00:00 5.6 3 Sudoeste 18 Sur 0.2 909.9 0.5 84
2020-01-22 19:00:00 5.5 3 Sur 15 Oeste 0.9 909.8 0.8 86
2020-01-22 18:00:00 6.2 4 Sudeste 21 Sur 0.1 909.5 0.3 79
2020-01-22 17:00:00 6.7 0 Calma 14 Este 0 909.4 0 78
2020-01-22 16:00:00 6.9 7 Este 14 Este 0 909 -1.1 80
2020-01-22 15:00:00 7 3 Este 17 Sur 0 909.2 -1.4 82
2020-01-22 14:00:00 8.4 4 Sudeste 14 Este 0.1 909.4 -0.7 73
2020-01-22 13:00:00 7.3 5 Sudeste 14 Sudeste 0.2 910.1 0.6 77
2020-01-22 12:00:00 5.5 2 Sudeste 15 Sudeste 0.1 910.6 1.6 82
2020-01-22 11:00:00 5.9 4 Nordeste 23 Noroeste 0 910.1 1.2 83
2020-01-22 10:00:00 4.5 4 Este 14 Sur 0.1 909.5 1.3 85
2020-01-22 09:00:00 4 0 Calma 12 Oeste 0.8 909 1.1 88
2020-01-22 08:00:00 4 0 Calma 12 Sudoeste 1.8 908.9 0.6 90
2020-01-22 07:00:00 4.1 2 Sudoeste 11 Sur 2 908.2 0 91
2020-01-22 06:00:00 3.6 4 Sudoeste 14 Sudoeste 3 907.9 -0.1 91
2020-01-22 05:00:00 3.7 4 Oeste 16 Sudoeste 5 908.3 0.2 91
2020-01-22 04:00:00 4.3 6 Oeste 19 Oeste 2.9 908.2 0.2 87
2020-01-22 03:00:00 4.3 5 Oeste 20 Sudeste 0.5 908 -0.2 85
2020-01-22 02:00:00 5.2 4 Sur 20 Sudeste 0 908.1 0.5 81
2020-01-22 01:00:00 4.3 3 Oeste 23 Sur 0.2 908 0.6 82
2020-01-22 00:00:00 4.9 5 Sudoeste 17 Sudoeste 0.1 908.2 0.7 80
2020-01-21 23:00:00 4.2 5 Sudoeste 19 Oeste 0 907.6 0.1 82
2020-01-21 22:00:00 4.1 4 Oeste 10 Oeste 0.1 907.4 0.5 87
2020-01-21 21:00:00 4.5 0 Calma 5 Sudeste 0.1 907.5 1.3 91
2020-01-21 20:00:00 5.1 2 Este 5 Este 0 907.5 1.2 89
2020-01-21 19:00:00 5.4 2 Este 4 Nordeste 0 906.9 0.7 86
2020-01-21 18:00:00 5.6 0 Calma 5 Nordeste 0 906.2 0.2 85
2020-01-21 17:00:00 5.6 0 Calma 9 Este 0 906.3 -0.4 84
2020-01-21 16:00:00 5.8 2 Nordeste 6 Este 0 906.2 -0.8 83
2020-01-21 15:00:00 6 3 Este 9 Este 0 906 -2 80
2020-01-21 14:00:00 6.4 6 Este 15 Este 0 906.7 -0.9 77
2020-01-21 13:00:00 5.5 2 Noroeste 10 Este 0 907 -0.9 80
2020-01-21 12:00:00 3.8 5 Nordeste 12 Este 0 908 0.1 85
2020-01-21 11:00:00 6.5 5 Nordeste 16 Este 0 907.6 -0.3 75
2020-01-21 10:00:00 4.8 6 Este 10 Este 0 907.9 0 77
2020-01-21 09:00:00 1.5 3 Oeste 11 Oeste 0 907.9 0.3 94
2020-01-21 08:00:00 1.2 5 Oeste 12 Oeste 0 907.9 -0.5 94
2020-01-21 07:00:00 0.5 4 Oeste 11 Noroeste 0 907.9 -0.6 94
2020-01-21 06:00:00 1 6 Oeste 10 Oeste 0 907.6 -1.2 94
2020-01-21 05:00:00 1.7 0 Calma 8 Nordeste 0 908.4 -0.7 93
2020-01-21 04:00:00 1.1 5 Oeste 8 Oeste 0 908.5 -1 94
2020-01-21 03:00:00 1.7 0 Calma 6 Oeste 0 908.8 -0.7 93
2020-01-21 02:00:00 2 3 Oeste 8 Noroeste 0 909.1 -0.1 92
2020-01-21 01:00:00 3 0 Calma 11 Nordeste 0 909.5 0.4 87
2020-01-21 00:00:00 3.1 0 Calma 14 Este 0 909.5 0.5 89
2020-01-20 23:00:00 3 9 Este 19 Nordeste 0 909.2 0.3 89
2020-01-20 22:00:00 3.1 6 Nordeste 12 Nordeste 0 909.1 0.7 89
2020-01-20 21:00:00 2.9 5 Este 14 Este 0 909 0.8 90
2020-01-20 20:00:00 2.5 5 Nordeste 12 Este 0 908.9 1.1 93
2020-01-20 19:00:00 1.9 5 Este 12 Este 0.1 908.4 0.7 93
2020-01-20 18:00:00 1.2 0 Calma 12 Este 0.1 908.2 0.3 95
2020-01-20 17:00:00 1 3 Nordeste 12 Este 1.1 907.8 -0.3 92
2020-01-20 16:00:00 0.8 3 Sudoeste 10 Este 0.8 907.7 -0.7 93
2020-01-20 15:00:00 1.7 6 Este 17 Este 0 907.9 -1.2 88
2020-01-20 14:00:00 2.4 7 Este 14 Este 0 908.1 -1.3 81
2020-01-20 13:00:00 2.6 5 Este 12 Este 0 908.4 -1.1 77
2020-01-20 12:00:00 1.5 0 Calma 13 Sudeste 0 909.1 -0.3 78
2020-01-20 11:00:00 0.5 2 Sudeste 18 Este 0 909.4 -0.1 83
2020-01-20 10:00:00 0.1 7 Este 19 Este 0 909.5 0 84
2020-01-20 09:00:00 -0.1 9 Este 14 Este 0 909.4 -0.2 85
2020-01-20 08:00:00 -0.1 3 Nordeste 16 Este 0 909.5 -0.7 90
2020-01-20 07:00:00 0.3 9 Este 21 Este 0 909.5 -1.1 89
2020-01-20 06:00:00 0.4 12 Este 20 Este 0 909.6 -1.2 90
2020-01-20 05:00:00 1 8 Este 23 Nordeste 0 910.2 -0.7 88
2020-01-20 04:00:00 1.1 14 Este 29 Este 0 910.6 -0.5 90
2020-01-20 03:00:00 1.3 13 Este 28 Este 0 910.8 -0.4 91
2020-01-20 02:00:00 1.5 18 Este 31 Este 0 910.9 0.1 92
2020-01-20 01:00:00 1.7 17 Este 34 Este 0 911.1 0.7 92
2020-01-20 00:00:00 2 19 Este 38 Este 0 911.2 0.3 91
2020-01-19 23:00:00 2.4 24 Este 43 Este 0 910.8 -0.7 89
2020-01-19 22:00:00 3.1 24 Este 44 Este 0 910.4 -1.3 87
2020-01-19 21:00:00 4.2 20 Este 33 Este 0 910.9 -1.2 82
2020-01-19 20:00:00 4.5 11 Este 27 Este 0.1 911.5 -0.3 83
2020-01-19 19:00:00 4.5 12 Este 38 Sudeste 0.1 911.7 -0.6 82
2020-01-19 18:00:00 4.1 6 Este 38 Este 0.6 912.1 -0.4 84
2020-01-19 17:00:00 6.1 12 Este 39 Este 0.1 911.8 -1.5 77
2020-01-19 16:00:00 6.1 11 Este 34 Este 0.4 912.3 -1.4 79
2020-01-19 15:00:00 6.4 11 Este 30 Este 0 912.5 -2.1 78
2020-01-19 14:00:00 6.7 6 Este 22 Noroeste 0 913.3 -1.7 79
2020-01-19 13:00:00 6.3 4 Oeste 19 Noroeste 0 913.7 -1.5 81
2020-01-19 12:00:00 5.6 7 Oeste 22 Sudeste 0 914.6 -0.6 86
2020-01-19 11:00:00 5.3 5 Oeste 33 Oeste 0 915 -0.3 88
2020-01-19 10:00:00 4.4 15 Oeste 35 Noroeste 0 915.2 0 90
2020-01-19 09:00:00 4.1 3 Noroeste 30 Noroeste 0 915.2 0.1 91
2020-01-19 08:00:00 4.7 7 Oeste 34 Noroeste 0 915.3 -0.4 87
2020-01-19 07:00:00 5.4 4 Oeste 32 Noroeste 0 915.2 -2 86
2020-01-19 06:00:00 6.2 12 Oeste 42 Noroeste 0.1 915.1 -2.9 84
2020-01-19 05:00:00 6.6 17 Oeste 44 Noroeste 0 915.7 -2.9 82
2020-01-19 04:00:00 7.1 10 Oeste 32 Noroeste 0 917.2 -1.4 81
2020-01-19 03:00:00 7.5 6 Oeste 51 Noroeste 0 918 -1.2 81
2020-01-19 02:00:00 8.2 12 Oeste 31 Noroeste 1.4 918.6 -1.2 90
2020-01-19 01:00:00 10.7 10 Oeste 39 Sudoeste 4.5 918.6 -1.7 94
2020-01-19 00:00:00 11.5 12 Oeste 37 Oeste 4.3 919.2 -2 94
2020-01-18 23:00:00 11.6 8 Oeste 27 Oeste 6.2 919.8 -2 95
2020-01-18 22:00:00 11.6 8 Sudoeste 24 Sudoeste 6.1 920.3 -1.7 95
2020-01-18 21:00:00 11.7 6 Oeste 29 Noroeste 6.9 921.2 -1.3 94
2020-01-18 20:00:00 11.3 5 Sudoeste 21 Sudoeste 6.2 921.8 -0.8 93
2020-01-18 19:00:00 10.7 6 Sudoeste 21 Sudoeste 6.5 922 -0.9 94
2020-01-18 18:00:00 10.5 6 Sudoeste 23 Sudoeste 9.1 922.5 -0.8 93
2020-01-18 17:00:00 10.4 8 Sudoeste 26 Sudoeste 6.6 922.6 -1.3 93
2020-01-18 16:00:00 10.2 8 Sudoeste 20 Sudoeste 3.3 922.9 -2.2 92
2020-01-18 15:00:00 10.5 8 Sudoeste 31 Sudoeste 0.1 923.3 -3.2 89
2020-01-18 14:00:00 11.3 7 Oeste 24 Oeste 0 923.9 -2.7 77
2020-01-18 13:00:00 11 7 Sudoeste 23 Oeste 0.1 925.1 -0.7 74
2020-01-18 12:00:00 10.1 5 Oeste 18 Sudoeste 0 926.5 1 76
2020-01-18 11:00:00 10.4 6 Oeste 15 Sudoeste 0 926.6 1.4 63
2020-01-18 10:00:00 8.9 5 Oeste 15 Oeste 0 925.8 1.1 70
2020-01-18 09:00:00 10.2 6 Oeste 15 Sudoeste 0 925.5 0.5 54
2020-01-18 08:00:00 9.6 4 Oeste 10 Oeste 0 925.2 0.2 54
2020-01-18 07:00:00 8.7 8 Oeste 14 Oeste 0 924.7 -0.9 63
2020-01-18 06:00:00 7.4 7 Oeste 12 Oeste 0 925 -0.9 64
2020-01-18 05:00:00 6.5 5 Oeste 12 Oeste 0 925 -1.3 71
2020-01-18 04:00:00 5.3 5 Oeste 10 Oeste 0 925.6 -1.2 74
2020-01-18 03:00:00 4.8 6 Oeste 13 Noroeste 0 925.9 -1 76
2020-01-18 02:00:00 3.6 7 Oeste 12 Oeste 0 926.3 -0.5 85
2020-01-18 01:00:00 3.9 6 Oeste 11 Oeste 0 926.8 -0.1 86
2020-01-18 00:00:00 4.3 5 Oeste 9 Oeste 0 926.9 0.3 85
2020-01-17 23:00:00 5.2 6 Oeste 10 Oeste 0 926.8 0.1 79
2020-01-17 22:00:00 4.1 8 Oeste 11 Noroeste 0 926.9 0.5 82
2020-01-17 21:00:00 4.6 5 Oeste 10 Oeste 0 926.6 0.9 86
2020-01-17 20:00:00 6.7 6 Oeste 8 Oeste 0 926.7 1.3 87
2020-01-17 19:00:00 9.7 2 Oeste 14 Oeste 0 926.4 0.9 81
2020-01-17 18:00:00 10.8 3 Oeste 9 Oeste 0 925.7 0 76
2020-01-17 17:00:00 11.8 3 Oeste 10 Noroeste 0 925.4 -1 70
2020-01-17 16:00:00 12.3 6 Este 12 Oeste 0 925.5 -1.5 77
2020-01-17 15:00:00 12.7 4 Oeste 13 Oeste 0 925.7 -1.8 70
2020-01-17 14:00:00 11.7 0 Calma 9 Este 0 926.4 -0.9 78
2020-01-17 13:00:00 11.8 5 Este 14 Noroeste 0 927 0.2 72
2020-01-17 12:00:00 11.9 0 Calma 9 Norte 0 927.5 1.4 72
2020-01-17 11:00:00 10.6 4 Oeste 14 Noroeste 0 927.3 1.7 80
2020-01-17 10:00:00 9.8 2 Sudoeste 13 Noroeste 0 926.8 1.9 80
2020-01-17 09:00:00 8.9 4 Oeste 14 Sudoeste 0 926.1 1.5 72
2020-01-17 08:00:00 8 5 Oeste 13 Oeste 0 925.6 1.2 58
2020-01-17 07:00:00 7.2 5 Oeste 13 Oeste 0 924.9 0.5 55
2020-01-17 06:00:00 7.7 6 Oeste 14 Oeste 0 924.6 0 49
2020-01-17 05:00:00 7.9 7 Oeste 16 Oeste 0 924.4 -0.4 45
2020-01-17 04:00:00 7.4 5 Oeste 16 Oeste 0 924.4 -0.5 47
2020-01-17 03:00:00 4.6 5 Oeste 14 Oeste 0 924.6 -0.5 61
2020-01-17 02:00:00 4.7 5 Oeste 16 Oeste 0 924.8 0.2 63
2020-01-17 01:00:00 3.8 6 Oeste 12 Oeste 0 924.9 0.5 72
2020-01-17 00:00:00 3.6 6 Oeste 11 Oeste 0 925.1 1.1 78
2020-01-16 23:00:00 5.5 5 Oeste 12 Sudoeste 0 924.6 1.1 85
2020-01-16 22:00:00 6 6 Oeste 11 Sudoeste 0 924.4 1.2 83
2020-01-16 21:00:00 6.6 6 Oeste 10 Oeste 0 924 1.2 80
2020-01-16 20:00:00 7.1 5 Oeste 12 Sudoeste 0 923.5 1.1 76
2020-01-16 19:00:00 7 5 Oeste 10 Sudoeste 0 923.2 1.1 69
2020-01-16 18:00:00 9.6 4 Oeste 12 Sudoeste 0 922.8 0.6 52
2020-01-16 17:00:00 10.9 4 Sudoeste 13 Sudoeste 0 922.4 -0.2 51
2020-01-16 16:00:00 12.1 5 Sudoeste 13 Oeste 0 922.1 -0.9 42
2020-01-16 15:00:00 13.9 5 Sudoeste 16 Oeste 0 922.2 -1.4 41
2020-01-16 14:00:00 14 6 Oeste 15 Oeste 0 922.6 -0.9 36
2020-01-16 13:00:00 14.6 3 Sudoeste 15 Nordeste 0 923 0 33
2020-01-16 12:00:00 12.8 5 Oeste 11 Sur 0 923.6 1.1 36
2020-01-16 11:00:00 10.3 5 Oeste 9 Oeste 0 923.5 1.2 45
2020-01-16 10:00:00 7.3 6 Oeste 12 Oeste 0 923 1.3 55
2020-01-16 09:00:00 4.1 7 Oeste 12 Oeste 0 922.5 0.9 63
2020-01-16 08:00:00 4.1 6 Oeste 12 Oeste 0 922.3 0.6 61
2020-01-16 07:00:00 4.2 8 Oeste 12 Oeste 0 921.7 -0.6 61
2020-01-16 06:00:00 4.5 8 Oeste 13 Oeste 0 921.6 -0.7 59
2020-01-16 05:00:00 3.7 7 Oeste 12 Oeste 0 921.7 -0.7 59
2020-01-16 04:00:00 4.1 7 Oeste 10 Noroeste 0 922.3 -0.3 54
2020-01-16 03:00:00 4.1 6 Oeste 13 Noroeste 0 922.3 -0.5 54
2020-01-16 02:00:00 4.3 8 Oeste 13 Oeste 0 922.4 -0.2 53
2020-01-16 01:00:00 5.1 6 Oeste 11 Oeste 0 922.6 0 48
2020-01-16 00:00:00 5 7 Oeste 10 Oeste 0 922.8 0.2 49
2020-01-15 23:00:00 4.3 8 Oeste 12 Oeste 0 922.6 0.1 52
2020-01-15 22:00:00 4.8 7 Oeste 12 Oeste 0 922.6 0.3 52
2020-01-15 21:00:00 5.3 6 Oeste 11 Oeste 0 922.6 0.8 55
2020-01-15 20:00:00 5.6 6 Oeste 13 Sudoeste 0 922.5 0.9 64
2020-01-15 19:00:00 7.2 8 Oeste 13 Sudoeste 0 922.3 1.1 57
2020-01-15 18:00:00 9.3 6 Oeste 15 Sudoeste 0 921.8 0.8 51
2020-01-15 17:00:00 10.7 5 Oeste 16 Sudoeste 0 921.6 0.4 42
2020-01-15 16:00:00 12 6 Oeste 18 Oeste 0 921.2 -0.3 36
2020-01-15 15:00:00 13 6 Oeste 19 Sudoeste 0 921 -1 37
2020-01-15 14:00:00 13 8 Oeste 22 Oeste 0 921.2 -0.4 39
2020-01-15 13:00:00 12.7 7 Oeste 17 Sudoeste 0 921.5 0.7 40
2020-01-15 12:00:00 11.6 6 Oeste 15 Sudoeste 0 922 1.8 43
2020-01-15 11:00:00 10.9 4 Oeste 15 Sudoeste 0 921.6 1.8 44
2020-01-15 10:00:00 7.9 3 Oeste 9 Sudoeste 0 920.8 1.6 61
2020-01-15 09:00:00 3.3 6 Oeste 11 Oeste 0 920.2 1.5 81
2020-01-15 08:00:00 3.2 5 Oeste 10 Sudoeste 0 919.8 1 83
2020-01-15 07:00:00 3.3 6 Oeste 9 Oeste 0 919.2 0.3 82
2020-01-15 06:00:00 3.6 6 Oeste 10 Sudoeste 0 918.7 -0.4 80
2020-01-15 05:00:00 4.2 6 Oeste 9 Oeste 0 918.8 -0.1 78
2020-01-15 04:00:00 3.6 6 Oeste 11 Oeste 0 918.9 -0.4 82
2020-01-15 03:00:00 4.2 5 Oeste 13 Oeste 0 919.1 -0.4 81
2020-01-15 02:00:00 3.4 5 Oeste 11 Oeste 0 918.9 -0.4 85
2020-01-15 01:00:00 3.9 6 Oeste 9 Oeste 0 919.3 0 85
2020-01-15 00:00:00 4.2 5 Oeste 10 Oeste 0 919.5 0.4 87
2020-01-14 23:00:00 3.7 6 Oeste 10 Oeste 0 919.3 0.1 88
2020-01-14 22:00:00 3.6 4 Oeste 10 Oeste 0 919.3 0.6 88
2020-01-14 21:00:00 3.6 5 Oeste 10 Oeste 0 919.1 0.5 88
2020-01-14 20:00:00 4 6 Oeste 10 Noroeste 0 919.2 1.1 86
2020-01-14 19:00:00 5.2 7 Oeste 12 Oeste 0 918.7 1 83
2020-01-14 18:00:00 7.2 5 Oeste 10 Oeste 0 918.6 0.9 76
2020-01-14 17:00:00 9 2 Este 9 Sudoeste 0 918.1 -0.2 63
2020-01-14 16:00:00 9.4 6 Este 17 Noroeste 0 917.7 -1.3 59
2020-01-14 15:00:00 10.3 2 Sudeste 21 Noroeste 0 917.7 -1.6 54
2020-01-14 14:00:00 9.4 5 Oeste 17 Sudoeste 0 918.3 -0.8 63
2020-01-14 13:00:00 9.4 5 Sudoeste 17 Sudoeste 0 919 0.5 64
2020-01-14 12:00:00 8.5 6 Sudoeste 19 Sudoeste 0 919.3 1.2 68
2020-01-14 11:00:00 7.3 5 Oeste 15 Noroeste 0 919.1 1.1 77
2020-01-14 10:00:00 3.9 3 Oeste 8 Oeste 0 918.5 1 92
2020-01-14 09:00:00 1.5 6 Oeste 10 Oeste 0 918.1 0.7 94
2020-01-14 08:00:00 1.2 6 Oeste 11 Oeste 0 918 0.4 94
2020-01-14 07:00:00 1.5 5 Oeste 8 Oeste 0 917.5 -0.4 93
2020-01-14 06:00:00 1.9 6 Oeste 10 Oeste 0 917.4 -0.8 93
2020-01-14 05:00:00 1.9 5 Oeste 10 Oeste 0 917.6 -0.9 92
2020-01-14 04:00:00 1.8 5 Oeste 9 Oeste 0 917.9 -1.1 91
2020-01-14 03:00:00 2.8 5 Oeste 10 Oeste 0 918.2 -1.2 89
2020-01-14 02:00:00 3.9 5 Noroeste 9 Oeste 0 918.5 -1 83
2020-01-14 01:00:00 3.1 6 Oeste 11 Oeste 0 919 -0.6 86
2020-01-14 00:00:00 2.1 6 Oeste 12 Noroeste 0 919.4 -0.5 92
2020-01-13 23:00:00 2.3 5 Oeste 9 Oeste 0 919.5 -0.6 91
2020-01-13 22:00:00 3 5 Oeste 9 Oeste 0 919.6 -0.4 91
2020-01-13 21:00:00 3.2 5 Oeste 9 Noroeste 0 919.9 0.4 90
2020-01-13 20:00:00 3.7 5 Oeste 10 Oeste 0 920.1 0.7 87
2020-01-13 19:00:00 6 5 Oeste 10 Sudoeste 0 920 0.5 82
2020-01-13 18:00:00 8.3 5 Oeste 13 Sudoeste 0 919.5 -0.4 70
2020-01-13 17:00:00 9.6 5 Oeste 11 Sudoeste 0 919.4 -1.1 61
2020-01-13 16:00:00 11.1 2 Sur 9 Nordeste 0 919.5 -1.9 52
2020-01-13 15:00:00 11.9 4 Este 9 Este 0 919.9 -1.7 41
2020-01-13 14:00:00 11.9 5 Este 10 Nordeste 0 920.5 -0.9 37
2020-01-13 13:00:00 11.5 5 Este 13 Sudoeste 0 921.4 0.4 37
2020-01-13 12:00:00 11.6 5 Oeste 14 Oeste 0 921.6 0.9 33
2020-01-13 11:00:00 10.6 6 Oeste 14 Sudoeste 0 921.4 0.7 29
2020-01-13 10:00:00 6.9 4 Oeste 12 Sudoeste 0 921 0.6 38
2020-01-13 09:00:00 2 8 Oeste 13 Oeste 0 920.7 0 57
2020-01-13 08:00:00 0.5 9 Oeste 13 Oeste 0 920.7 -0.2 61
2020-01-13 07:00:00 0.2 7 Oeste 13 Oeste 0 920.4 -1 65
2020-01-13 06:00:00 0.3 9 Oeste 12 Oeste 0 920.7 -0.9 65
2020-01-13 05:00:00 0.8 8 Oeste 12 Oeste 0 920.9 -1.4 65
2020-01-13 04:00:00 1 7 Oeste 11 Oeste 0 921.4 -1.3 64
2020-01-13 03:00:00 1.2 7 Oeste 13 Oeste 0 921.6 -1.8 69
2020-01-13 02:00:00 1.2 6 Oeste 13 Oeste 0 922.3 -1 73
2020-01-13 01:00:00 1.9 9 Oeste 13 Oeste 0 922.7 -0.6 69
2020-01-13 00:00:00 1.9 6 Oeste 12 Noroeste 0 923.4 0.2 82
2020-01-12 23:00:00 2.1 7 Oeste 12 Oeste 0 923.3 0.1 89
2020-01-12 22:00:00 2.1 8 Oeste 12 Oeste 0 923.3 0.4 89
2020-01-12 21:00:00 2.3 8 Oeste 10 Oeste 0 923.2 0.6 89
2020-01-12 20:00:00 2.5 6 Oeste 10 Oeste 0 923.2 0.7 86
2020-01-12 19:00:00 3.8 6 Oeste 10 Oeste 0 922.9 0.1 82
2020-01-12 18:00:00 5.3 5 Oeste 9 Oeste 0 922.6 -0.2 77
2020-01-12 17:00:00 7.6 3 Sur 6 Sudoeste 0 922.5 -0.9 69
2020-01-12 16:00:00 11 4 Sudeste 12 Este 0 922.8 -1.6 55
2020-01-12 15:00:00 12.1 4 Este 14 Este 0 922.8 -2.3 51
2020-01-12 14:00:00 12.2 4 Este 12 Nordeste 0 923.4 -1.7 48
2020-01-12 13:00:00 11.7 4 Este 14 Este 0 924.4 -0.2 47
2020-01-12 12:00:00 11.1 6 Este 13 Este 0 925.1 0.7 51
2020-01-12 11:00:00 9.7 4 Este 6 Sudeste 0 925.1 0.8 55
2020-01-12 10:00:00 4.5 0 Calma 9 Oeste 0 924.6 0.6 84
2020-01-12 09:00:00 1.5 7 Oeste 10 Oeste 0 924.4 0.4 92
2020-01-12 08:00:00 1.3 7 Oeste 9 Oeste 0 924.3 0.1 92
2020-01-12 07:00:00 1.2 6 Oeste 10 Oeste 0 924 -0.6 93
2020-01-12 06:00:00 1.4 6 Oeste 12 Oeste 0 924 -0.3 92
2020-01-12 05:00:00 1.7 7 Oeste 12 Oeste 0 924.2 -0.1 93
2020-01-12 04:00:00 1.8 6 Oeste 13 Oeste 0 924.6 0.1 93
2020-01-12 03:00:00 1.8 7 Oeste 13 Oeste 0 924.3 -0.6 92
2020-01-12 02:00:00 1.8 6 Oeste 9 Oeste 0 924.3 -0.3 92
2020-01-12 01:00:00 2 6 Oeste 10 Oeste 0 924.5 0 92
2020-01-12 00:00:00 2.3 5 Oeste 9 Oeste 0 924.9 0.7 92
2020-01-11 23:00:00 2.6 7 Oeste 9 Oeste 0 924.6 0.5 91
2020-01-11 22:00:00 3.1 6 Oeste 9 Oeste 0 924.5 0.9 90
2020-01-11 21:00:00 3.6 5 Oeste 10 Oeste 0 924.2 1 87
2020-01-11 20:00:00 6.4 4 Oeste 8 Oeste 0 924.1 1.3 82
2020-01-11 19:00:00 8 0 Calma 7 Este 0 923.6 1 76
2020-01-11 18:00:00 8.5 4 Oeste 8 Sudoeste 0 923.2 0.6 76
2020-01-11 17:00:00 9.2 5 Oeste 12 Oeste 0 922.8 0 70
2020-01-11 16:00:00 9.5 3 Oeste 11 Sudoeste 0 922.6 -0.9 71
2020-01-11 15:00:00 11.3 2 Este 10 Este 0 922.6 -1.3 54
2020-01-11 14:00:00 11.1 2 Este 12 Este 0 922.8 -0.9 53
2020-01-11 13:00:00 11.7 4 Este 14 Este 0 923.5 0.4 52
2020-01-11 12:00:00 11.3 7 Este 15 Este 0 923.9 1.4 56
2020-01-11 11:00:00 9.9 4 Este 8 Sudeste 0 923.7 1.7 61
2020-01-11 10:00:00 5 2 Oeste 11 Oeste 0 923.1 1.5 81
2020-01-11 09:00:00 2.2 5 Oeste 13 Oeste 0 922.5 1.1 90
2020-01-11 08:00:00 1.6 6 Oeste 12 Oeste 0 922 0.4 91
2020-01-11 07:00:00 2.6 6 Oeste 12 Sudoeste 0 921.6 -0.1 92
2020-01-11 06:00:00 1.9 6 Oeste 9 Oeste 0 921.4 -0.2 91
2020-01-11 05:00:00 2 5 Oeste 11 Oeste 0 921.6 0.3 88
2020-01-11 04:00:00 1.5 6 Oeste 12 Oeste 0 921.7 0.2 86
2020-01-11 03:00:00 1.7 7 Oeste 12 Oeste 0 921.6 -0.1 84
2020-01-11 02:00:00 1.3 7 Oeste 12 Oeste 0 921.3 -0.5 83
2020-01-11 01:00:00 1.4 7 Oeste 10 Oeste 0 921.5 0 82
2020-01-11 00:00:00 4.1 0 Calma 11 Este 0 921.7 0.4 69
2020-01-10 23:00:00 4.3 6 Este 22 Este 0 921.8 1 66
2020-01-10 22:00:00 5.9 12 Este 28 Este 0 921.5 1.3 66
2020-01-10 21:00:00 6 12 Este 21 Este 0 921.3 1.5 73
2020-01-10 20:00:00 6.3 8 Este 21 Este 0 920.8 1.5 79
2020-01-10 19:00:00 6.7 12 Este 22 Este 0 920.2 1.4 76
2020-01-10 18:00:00 7.1 7 Este 18 Este 0 919.8 0.6 78
2020-01-10 17:00:00 7.5 6 Este 19 Nordeste 0 919.3 -0.1 80
2020-01-10 16:00:00 8.4 10 Este 18 Este 0 918.8 -1.1 78
2020-01-10 15:00:00 8.8 6 Este 19 Este 0 919.2 -2 73
2020-01-10 14:00:00 9.4 5 Nordeste 22 Este 0 919.4 -1.4 68
2020-01-10 13:00:00 8.3 9 Este 15 Este 0 919.9 -0.5 77
2020-01-10 12:00:00 7.8 3 Este 10 Este 0 921.2 1.2 86
2020-01-10 11:00:00 8 5 Este 9 Este 0 920.8 0.7 86
2020-01-10 10:00:00 8 3 Este 6 Este 0 920.4 0.2 84
2020-01-10 09:00:00 6.5 0 Calma 9 Nordeste 0 920 0 90
2020-01-10 08:00:00 7 3 Este 14 Este 0 920.1 0.1 89
2020-01-10 07:00:00 6.7 2 Nordeste 16 Noroeste 0 920.2 -0.3 91
2020-01-10 06:00:00 7.6 0 Calma 22 Sudoeste 0 920 -0.9 86
2020-01-10 05:00:00 7 0 Calma 10 Noroeste 0 920 -1.2 80
2020-01-10 04:00:00 8.3 6 Oeste 21 Noroeste 0 920.5 -1 81
2020-01-10 03:00:00 6.1 5 Oeste 10 Sudoeste 0 920.9 -1.1 82
2020-01-10 02:00:00 7.4 3 Sudoeste 7 Oeste 0 921.2 -0.8 71
2020-01-10 01:00:00 6.9 0 Calma 12 Noroeste 0 921.5 0.2 76
2020-01-10 00:00:00 6.1 0 Calma 11 Noroeste 0 922 0.3 71
2020-01-09 23:00:00 5.6 4 Sur 10 Noroeste 0 922 -0.2 85
2020-01-09 22:00:00 4.3 5 Oeste 11 Oeste 0 921.3 -0.5 84
2020-01-09 21:00:00 4.1 4 Oeste 9 Noroeste 0 921.7 1 91
2020-01-09 20:00:00 5.2 4 Oeste 11 Oeste 0 922.2 1.3 89
2020-01-09 19:00:00 7.1 5 Oeste 11 Sudoeste 0 921.8 0.9 87
2020-01-09 18:00:00 7.6 2 Oeste 14 Oeste 0 920.7 -0.1 82
2020-01-09 17:00:00 9.3 5 Oeste 14 Oeste 0 920.9 -0.5 79
2020-01-09 16:00:00 10.8 6 Oeste 16 Oeste 0 920.9 -1.3 72
2020-01-09 15:00:00 13.1 3 Sudeste 9 Este 0 920.8 -1.8 53
2020-01-09 14:00:00 12.7 4 Este 9 Este 0 921.4 -1.3 53
2020-01-09 13:00:00 11.5 6 Este 12 Este 0 922.2 -0.1 56
2020-01-09 12:00:00 11.3 7 Este 11 Este 0 922.6 0.8 56
2020-01-09 11:00:00 10.3 3 Este 5 Este 0 922.7 1.1 58
2020-01-09 10:00:00 6.1 2 Oeste 9 Oeste 0 922.3 1.1 71
2020-01-09 09:00:00 3.8 6 Oeste 10 Oeste 0 921.8 0.4 72
2020-01-09 08:00:00 3.1 6 Oeste 12 Oeste 0 921.6 -0.2 68
2020-01-09 07:00:00 3.5 7 Oeste 11 Oeste 0 921.2 -0.9 68
2020-01-09 06:00:00 3.7 6 Oeste 10 Oeste 0 921.4 -1 70
2020-01-09 05:00:00 3.8 5 Oeste 10 Oeste 0 921.8 -0.7 73
2020-01-09 04:00:00 4 6 Oeste 10 Oeste 0 922.1 -0.5 70
2020-01-09 03:00:00 4.4 6 Oeste 13 Oeste 0 922.4 -0.6 67
2020-01-09 02:00:00 4.3 5 Oeste 9 Oeste 0 922.5 -0.5 64
2020-01-09 01:00:00 4.9 6 Oeste 10 Oeste 0 922.6 -0.4 60
2020-01-09 00:00:00 5.4 6 Oeste 11 Oeste 0 923 0.3 55
2020-01-08 23:00:00 5.5 8 Oeste 10 Oeste 0 923 0.5 58
2020-01-08 22:00:00 5.5 6 Oeste 10 Oeste 0 923 0.7 53
2020-01-08 21:00:00 5.9 6 Oeste 11 Noroeste 0 922.7 0.3 47
2020-01-08 20:00:00 6.3 8 Oeste 12 Oeste 0 922.5 0.2 44
2020-01-08 19:00:00 6.4 8 Oeste 12 Oeste 0 922.3 0 48
2020-01-08 18:00:00 7.4 5 Oeste 9 Oeste 0 922.4 -0.1 51
2020-01-08 17:00:00 10.3 4 Oeste 6 Noroeste 0 922.3 -0.4 38
2020-01-08 16:00:00 12.7 2 Sur 8 Sudoeste 0 922.3 -1 35
2020-01-08 15:00:00 16.2 5 Este 8 Sudeste 0 922.5 -1.3 25
2020-01-08 14:00:00 16.3 5 Este 9 Este 0 922.7 -1.4 26
2020-01-08 13:00:00 17.2 4 Sudeste 7 Este 0 923.3 -0.5 24
2020-01-08 12:00:00 14.5 2 Sudeste 7 Este 0 923.8 0.3 33
2020-01-08 11:00:00 10.6 5 Oeste 9 Oeste 0 924.1 0.9 46
2020-01-08 10:00:00 7.5 5 Oeste 9 Oeste 0 923.8 0.8 55
2020-01-08 09:00:00 4.6 7 Oeste 12 Oeste 0 923.5 0.6 59
2020-01-08 08:00:00 3.8 7 Oeste 12 Oeste 0 923.2 -0.1 65
2020-01-08 07:00:00 4 6 Oeste 12 Oeste 0 923 -0.3 64
2020-01-08 06:00:00 4.4 7 Oeste 12 Oeste 0 922.9 -0.8 59
2020-01-08 05:00:00 4.5 7 Oeste 13 Oeste 0 923.3 -0.3 57
2020-01-08 04:00:00 4.6 9 Oeste 13 Oeste 0 923.3 -0.8 58
2020-01-08 03:00:00 4.5 9 Oeste 13 Oeste 0 923.7 -0.6 58
2020-01-08 02:00:00 4.4 7 Oeste 11 Oeste 0 923.6 -1.2 57
2020-01-08 01:00:00 4.4 6 Oeste 12 Oeste 0 924.1 -0.8 57
2020-01-08 00:00:00 4.4 8 Oeste 12 Oeste 0 924.3 -0.5 56
2020-01-07 23:00:00 4.3 8 Oeste 12 Oeste 0 924.8 0.2 58
2020-01-07 22:00:00 4.4 7 Oeste 12 Oeste 0 924.9 0.4 62
2020-01-07 21:00:00 4.2 7 Oeste 10 Oeste 0 924.8 0.7 72
2020-01-07 20:00:00 5 7 Oeste 13 Oeste 0 924.6 0.7 76
2020-01-07 19:00:00 5.3 6 Oeste 12 Oeste 0 924.5 0.6 74
2020-01-07 18:00:00 6.9 6 Oeste 8 Oeste 0 924.1 0.2 66
2020-01-07 17:00:00 9.8 6 Oeste 8 Oeste 0 923.9 -0.2 53
2020-01-07 16:00:00 11.1 0 Calma 6 Sur 0 923.9 -0.9 45
2020-01-07 15:00:00 15.3 3 Este 6 Este 0 923.9 -1.1 36
2020-01-07 14:00:00 15.4 3 Este 9 Nordeste 0 924.1 -1.2 34
2020-01-07 13:00:00 15.1 3 Este 8 Este 0 924.8 0 36
2020-01-07 12:00:00 13.9 0 Calma 11 Noroeste 0 925 0.7 36
2020-01-07 11:00:00 11.1 4 Oeste 10 Oeste 0 925.3 0.9 45
2020-01-07 10:00:00 7.8 4 Oeste 13 Oeste 0 924.8 0.6 51
2020-01-07 09:00:00 4.6 8 Oeste 13 Oeste 0 924.3 0.5 56
2020-01-07 08:00:00 3.5 8 Oeste 14 Oeste 0 924.4 0.6 60
2020-01-07 07:00:00 3.7 8 Oeste 15 Oeste 0 924.2 0.4 58
2020-01-07 06:00:00 3.6 6 Oeste 13 Oeste 0 923.8 0.2 60
2020-01-07 05:00:00 3.4 8 Oeste 12 Oeste 0 923.8 -0.1 64
2020-01-07 04:00:00 3.4 8 Oeste 13 Oeste 0 923.8 -0.3 66
2020-01-07 03:00:00 3.2 8 Oeste 12 Noroeste 0 923.6 -0.6 73
2020-01-07 02:00:00 3 6 Oeste 10 Oeste 0 923.9 -0.2 77
2020-01-07 01:00:00 3.6 4 Oeste 12 Oeste 0 924.1 0.1 73
2020-01-07 00:00:00 3.6 7 Oeste 13 Oeste 0 924.2 0.6 73
2020-01-06 23:00:00 3.6 8 Oeste 13 Oeste 0 924.1 0.9 73
2020-01-06 22:00:00 2.8 7 Oeste 13 Oeste 0 924 1.3 83
2020-01-06 21:00:00 3.5 8 Oeste 11 Oeste 0 923.6 1.3 88
2020-01-06 20:00:00 3.9 5 Oeste 9 Oeste 0 923.2 1.1 91
2020-01-06 19:00:00 3.9 6 Oeste 9 Oeste 0 922.7 0.8 89
2020-01-06 18:00:00 6.2 7 Oeste 9 Oeste 0 922.3 0.4 85
2020-01-06 17:00:00 7.9 0 Calma 6 Sudoeste 0 922.1 -0.5 79
2020-01-06 16:00:00 9.4 2 Sudoeste 7 Este 0 921.9 -1.2 72
2020-01-06 15:00:00 11.8 3 Sur 7 Este 0 921.9 -1.5 62
2020-01-06 14:00:00 11.3 5 Este 11 Este 0 922.6 -0.6 63
2020-01-06 13:00:00 10.7 4 Este 12 Nordeste 0 923.1 0.3 65
2020-01-06 12:00:00 10.7 4 Este 8 Nordeste 0 923.4 1 62
2020-01-06 11:00:00 9.3 2 Este 4 Este 0 923.2 1.5 57
2020-01-06 10:00:00 4.7 0 Calma 7 Oeste 0 922.8 1.6 69